Time;durP1;ratioP1;P1;durP2;ratioP2;P2;SDS_P1;SDS_P2;PMS_P1;PMS_P2;Temp;Humidity;BMP_temperature;BMP_pressure;BME280_temperature;BME280_humidity;BME280_pressure;Samples;Min_cycle;Max_cycle;Signal;HPM_P1;HPM_P2
2021/11/30 00:11:43;;;;;;;31.20;24.33;;;22.90;63.30;;;;;;31635560;28;20044;-46
2021/11/30 00:26:45;;;;;;;27.27;23.15;;;22.90;63.00;;;;;;31633312;28;20055;-51
2021/11/30 00:41:53;;;;;;;25.08;21.40;;;22.90;62.80;;;;;;31635199;28;20040;-42
2021/11/30 00:56:56;;;;;;;27.90;21.55;;;22.80;63.10;;;;;;31634188;28;20076;-41
2021/11/30 01:11:59;;;;;;;23.60;20.42;;;22.80;63.30;;;;;;31629163;28;20048;-47
2021/11/30 01:27:01;;;;;;;21.80;18.02;;;22.70;63.50;;;;;;31625229;28;20064;-48
2021/11/30 01:42:03;;;;;;;21.50;17.83;;;22.70;63.60;;;;;;31624447;28;20060;-48
2021/11/30 01:57:09;;;;;;;18.23;15.73;;;22.80;63.50;;;;;;31622815;28;20063;-48
2021/11/30 02:12:12;;;;;;;17.08;14.80;;;23.40;62.90;;;;;;31621800;28;20068;-48
2021/11/30 02:27:14;;;;;;;15.82;13.95;;;23.50;62.70;;;;;;31620371;28;20766;-49
2021/11/30 02:42:16;;;;;;;16.20;13.32;;;23.30;62.80;;;;;;31637590;28;20104;-48
2021/11/30 02:57:19;;;;;;;14.38;12.57;;;23.30;62.80;;;;;;31660109;28;20087;-48
2021/11/30 03:12:23;;;;;;;20.27;13.10;;;23.20;62.90;;;;;;31659685;28;20072;-42
2021/11/30 03:27:25;;;;;;;13.55;12.15;;;23.10;63.20;;;;;;31658381;28;20119;-42
2021/11/30 03:42:27;;;;;;;12.07;10.77;;;23.00;63.40;;;;;;31657920;28;20076;-42
2021/11/30 03:57:29;;;;;;;12.35;10.57;;;23.00;63.60;;;;;;31643003;28;20131;-44
2021/11/30 04:12:31;;;;;;;11.73;10.38;;;22.90;63.70;;;;;;31636424;28;20071;-49
2021/11/30 04:27:34;;;;;;;11.45;10.15;;;22.80;63.70;;;;;;31634484;28;20090;-47
2021/11/30 04:42:36;;;;;;;10.45;9.30;;;22.90;63.80;;;;;;31632978;28;20075;-46
2021/11/30 04:57:38;;;;;;;9.38;8.38;;;22.80;63.60;;;;;;31629958;28;20076;-46
2021/11/30 05:12:41;;;;;;;8.63;7.72;;;22.70;63.90;;;;;;31628296;28;20049;-43
2021/11/30 05:27:44;;;;;;;8.57;7.47;;;22.90;63.80;;;;;;31626106;28;20131;-42
2021/11/30 05:42:46;;;;;;;8.43;7.45;;;23.50;63.30;;;;;;31624989;28;20115;-40
2021/11/30 05:57:48;;;;;;;13.45;5.07;;;23.10;59.70;;;;;;31623844;28;20060;-58
2021/11/30 06:12:50;;;;;;;6.85;4.90;;;22.40;55.60;;;;;;31586201;28;20072;-59
2021/11/30 06:27:52;;;;;;;6.55;4.70;;;22.00;55.70;;;;;;31501784;28;20049;-61
2021/11/30 06:42:54;;;;;;;60.22;42.60;;;22.60;57.30;;;;;;31492374;28;20144;-55
2021/11/30 06:57:56;;;;;;;31.85;23.13;;;23.00;56.70;;;;;;31586739;28;20113;-48
2021/11/30 07:28:29;;;;;;;50.90;41.63;;;23.00;57.70;;;;;;31510255;28;20044;-42
2021/11/30 07:43:31;;;;;;;61.38;43.42;;;22.90;58.00;;;;;;31638165;28;20096;-42
2021/11/30 07:58:33;;;;;;;57.85;45.78;;;22.80;58.30;;;;;;31639514;28;20072;-46
2021/11/30 08:13:36;;;;;;;46.35;36.72;;;22.70;58.50;;;;;;31637596;28;20074;-45
2021/11/30 08:28:42;;;;;;;44.97;35.90;;;22.70;58.80;;;;;;31637360;28;20120;-43
2021/11/30 08:43:44;;;;;;;42.55;33.50;;;23.20;57.90;;;;;;31635851;28;20477;-46
2021/11/30 08:58:50;;;;;;;40.78;32.20;;;23.30;57.80;;;;;;31634704;28;20093;-44
2021/11/30 09:13:52;;;;;;;34.58;27.77;;;23.20;58.20;;;;;;31629282;28;20064;-48
2021/11/30 09:28:55;;;;;;;29.85;26.20;;;23.00;58.00;;;;;;31627247;28;20043;-50
2021/11/30 09:43:57;;;;;;;30.70;25.58;;;22.80;58.30;;;;;;31625180;28;20040;-44
2021/11/30 09:58:59;;;;;;;28.27;25.20;;;22.60;58.20;;;;;;31625491;28;20213;-57
2021/11/30 10:14:15;;;;;;;25.38;22.08;;;22.90;58.60;;;;;;31623065;28;20048;-45
2021/11/30 10:29:17;;;;;;;23.02;19.02;;;23.20;58.10;;;;;;31623831;28;20095;-47
2021/11/30 10:44:30;;;;;;;21.08;18.20;;;23.20;58.00;;;;;;31625036;28;20070;-45
2021/11/30 10:59:32;;;;;;;18.65;16.65;;;23.00;58.30;;;;;;31628429;28;20830;-44
2021/11/30 11:14:44;;;;;;;18.25;15.32;;;22.90;57.80;;;;;;31648232;28;20078;-43
2021/11/30 11:29:46;;;;;;;18.17;15.07;;;22.70;57.90;;;;;;31645956;28;20092;-43
2021/11/30 11:44:49;;;;;;;15.32;13.73;;;22.70;58.40;;;;;;31642141;28;20044;-44
2021/11/30 11:59:51;;;;;;;16.00;12.75;;;23.10;58.00;;;;;;31638064;28;20094;-47
2021/11/30 12:15:00;;;;;;;13.13;11.10;;;23.20;57.70;;;;;;31636296;28;20068;-57
2021/11/30 12:30:04;;;;;;;12.52;11.23;;;23.10;57.90;;;;;;31634738;28;20044;-48
2021/11/30 12:45:08;;;;;;;11.93;10.50;;;23.00;58.10;;;;;;31632683;28;20091;-47
2021/11/30 13:00:25;;;;;;;23.83;9.85;;;22.90;58.10;;;;;;31632498;28;20072;-48
2021/11/30 13:15:28;;;;;;;11.25;9.18;;;22.70;58.10;;;;;;31629972;28;20045;-61
2021/11/30 13:30:32;;;;;;;84.90;14.80;;;22.90;58.20;;;;;;31626214;28;20041;-58
2021/11/30 13:45:41;;;;;;;78.68;15.82;;;23.20;57.70;;;;;;31624324;28;20143;-59
2021/11/30 14:00:57;;;;;;;69.60;13.70;;;23.20;57.90;;;;;;31622929;28;20057;-47
2021/11/30 14:15:59;;;;;;;56.53;14.40;;;23.20;58.10;;;;;;31620272;28;20071;-61
2021/11/30 14:31:01;;;;;;;40.80;12.48;;;23.00;58.40;;;;;;31617616;28;20045;-61
2021/11/30 14:46:04;;;;;;;48.60;10.95;;;22.90;58.90;;;;;;31627066;28;20124;-60
2021/11/30 15:01:22;;;;;;;24.98;8.75;;;22.90;59.60;;;;;;31588364;28;20101;-60
2021/11/30 15:16:45;;;;;;;29.48;8.82;;;22.90;59.30;;;;;;31558222;28;20068;-59
2021/11/30 15:31:48;;;;;;;29.00;9.20;;;22.80;59.50;;;;;;31541894;28;20045;-58
2021/11/30 15:46:51;;;;;;;28.52;8.60;;;22.70;59.60;;;;;;31499424;28;20048;-59
2021/11/30 16:01:53;;;;;;;15.65;7.40;;;22.70;59.40;;;;;;31514927;28;20057;-58
2021/11/30 16:16:58;;;;;;;13.48;6.88;;;22.80;59.50;;;;;;31589381;28;20052;-49
2021/11/30 16:32:00;;;;;;;14.45;6.90;;;23.30;59.50;;;;;;31568727;28;20078;-60
2021/11/30 16:47:03;;;;;;;14.07;5.68;;;23.20;59.20;;;;;;31586083;28;20071;-60
2021/11/30 17:02:05;;;;;;;11.35;4.93;;;23.00;59.00;;;;;;31558130;28;20052;-60
2021/11/30 17:17:08;;;;;;;12.60;4.93;;;22.90;59.10;;;;;;31579980;28;20103;-60
2021/11/30 17:32:10;;;;;;;10.18;4.63;;;22.70;59.10;;;;;;31544470;28;20082;-61
2021/11/30 17:47:12;;;;;;;12.90;4.45;;;22.70;58.80;;;;;;31223555;28;10000065;-51
2021/11/30 18:02:20;;;;;;;15.02;5.32;;;23.30;60.10;;;;;;31564165;28;20049;-49
2021/11/30 18:17:22;;;;;;;10.13;4.20;;;23.40;59.30;;;;;;31575259;28;20052;-57
2021/11/30 18:32:24;;;;;;;7.75;3.78;;;23.40;59.70;;;;;;31531166;28;20044;-50
2021/11/30 18:47:26;;;;;;;14.98;3.95;;;23.30;59.60;;;;;;31530263;28;20036;-57
2021/11/30 19:02:28;;;;;;;13.98;4.43;;;23.20;59.90;;;;;;31510167;28;20077;-65
2021/11/30 19:17:31;;;;;;;22.95;3.97;;;23.20;60.20;;;;;;31534801;28;20052;-59
2021/11/30 19:32:36;;;;;;;16.77;3.88;;;23.10;60.60;;;;;;31611709;28;20040;-50
2021/11/30 19:47:43;;;;;;;16.53;3.57;;;23.10;60.70;;;;;;31556926;28;20048;-55
2021/11/30 20:18:07;;;;;;;10.05;3.13;;;22.90;60.60;;;;;;31484251;28;20049;-58
2021/11/30 20:33:11;;;;;;;13.52;3.90;;;22.90;61.10;;;;;;31435659;28;20094;-44
2021/11/30 20:48:15;;;;;;;11.45;3.00;;;22.90;61.40;;;;;;31396919;28;20046;-57
2021/11/30 21:03:17;;;;;;;12.85;5.47;;;23.00;60.90;;;;;;31529064;28;20049;-57
2021/11/30 21:18:21;;;;;;;5.45;2.70;;;23.00;61.40;;;;;;31578269;28;20104;-49
2021/11/30 21:33:25;;;;;;;46.90;28.38;;;22.90;61.20;;;;;;31588292;28;20045;-57
2021/11/30 21:48:28;;;;;;;22.75;15.65;;;22.80;60.50;;;;;;31580889;28;20064;-45
2021/11/30 22:03:30;;;;;;;8.38;7.32;;;22.90;60.30;;;;;;31527530;28;20060;-47
2021/11/30 22:18:34;;;;;;;5.95;5.03;;;22.90;60.60;;;;;;31502037;28;20099;-46
2021/11/30 22:33:36;;;;;;;9.10;3.20;;;22.90;60.50;;;;;;31499581;28;20053;-45
2021/11/30 22:48:38;;;;;;;10.43;6.53;;;22.80;61.00;;;;;;31593569;28;20100;-50
2021/11/30 23:03:40;;;;;;;3.78;3.40;;;22.80;60.30;;;;;;31617108;28;20060;-47
2021/11/30 23:18:42;;;;;;;2.92;2.33;;;22.80;60.90;;;;;;31610686;28;20052;-43
2021/11/30 23:33:50;;;;;;;1.40;1.10;;;22.80;60.80;;;;;;31604803;28;20045;-44
2021/11/30 23:48:52;;;;;;;1.48;1.38;;;22.80;61.40;;;;;;31610773;28;20086;-53
